createdAt,value
2022-08-21T00:02:23.718Z,9.05
2022-08-21T00:04:57.394Z,8.90
2022-08-21T00:07:25.760Z,9.13
2022-08-21T00:09:53.434Z,9.00
2022-08-21T00:12:46.733Z,9.65
2022-08-21T00:15:17.446Z,8.63
2022-08-21T00:18:05.237Z,8.35
2022-08-21T00:20:33.136Z,9.63
2022-08-21T00:23:04.876Z,8.95
2022-08-21T00:25:32.367Z,8.32
2022-08-21T00:27:59.620Z,9.60
2022-08-21T00:30:27.774Z,9.23
2022-08-21T00:32:57.656Z,10.57
2022-08-21T00:35:30.263Z,9.82
2022-08-21T00:37:57.309Z,9.07
2022-08-21T00:40:34.086Z,9.60
2022-08-21T00:43:04.688Z,9.65
2022-08-21T00:45:43.326Z,8.57
2022-08-21T00:48:10.251Z,8.57
2022-08-21T00:50:41.249Z,9.48
2022-08-21T00:53:28.601Z,9.98
2022-08-21T00:56:09.324Z,9.68
2022-08-21T00:58:40.896Z,9.80
2022-08-21T01:01:10.274Z,10.07
2022-08-21T01:03:38.275Z,9.43
2022-08-21T01:06:11.043Z,10.48
2022-08-21T01:08:38.062Z,10.35
2022-08-21T01:11:14.452Z,11.15
2022-08-21T01:13:46.762Z,10.07
2022-08-21T01:16:16.902Z,10.07
2022-08-21T01:18:45.201Z,10.20
2022-08-21T01:21:14.009Z,10.55
2022-08-21T01:23:44.241Z,10.32
2022-08-21T01:26:13.760Z,10.43
2022-08-21T01:28:50.320Z,10.27
2022-08-21T01:31:19.178Z,9.57
2022-08-21T01:33:53.309Z,10.20
2022-08-21T01:36:20.582Z,10.13
2022-08-21T01:38:48.295Z,10.25
2022-08-21T01:41:16.419Z,9.70
2022-08-21T01:43:45.431Z,10.60
2022-08-21T01:46:13.459Z,10.63
2022-08-21T01:48:40.514Z,9.80
2022-08-21T01:51:07.829Z,10.88
2022-08-21T01:53:37.643Z,9.65
2022-08-21T01:56:12.256Z,10.88
2022-08-21T01:58:43.955Z,10.52
2022-08-21T02:01:11.312Z,10.55
2022-08-21T02:03:39.304Z,10.77
2022-08-21T02:06:08.019Z,10.75
2022-08-21T02:08:35.337Z,10.80
2022-08-21T02:11:02.347Z,9.70
2022-08-21T02:13:29.497Z,10.95
2022-08-21T02:15:56.387Z,9.43
2022-08-21T02:18:23.357Z,11.00
2022-08-21T02:20:55.834Z,10.43
2022-08-21T02:23:27.333Z,10.20
2022-08-21T02:26:02.491Z,10.38
2022-08-21T02:28:29.564Z,9.90
2022-08-21T02:30:57.770Z,9.30
2022-08-21T02:33:25.181Z,10.00
2022-08-21T02:35:54.069Z,9.63
2022-08-21T02:38:27.308Z,10.73
2022-08-21T02:40:54.940Z,9.38
2022-08-21T02:43:24.167Z,9.30
2022-08-21T02:45:51.884Z,8.70
2022-08-21T02:48:21.242Z,10.57
2022-08-21T02:50:53.830Z,9.90
2022-08-21T02:53:21.324Z,10.32
2022-08-21T02:55:51.348Z,9.88
2022-08-21T02:58:20.353Z,10.95
2022-08-21T03:00:47.581Z,10.40
2022-08-21T03:03:14.719Z,10.15
2022-08-21T03:05:42.421Z,10.68
2022-08-21T03:08:11.343Z,10.82
2022-08-21T03:10:40.722Z,11.15
2022-08-21T03:13:07.987Z,9.88
2022-08-21T03:15:34.950Z,11.30
2022-08-21T03:18:02.669Z,11.18
2022-08-21T03:20:30.531Z,10.77
2022-08-21T03:22:57.672Z,11.63
2022-08-21T03:25:39.962Z,10.75
2022-08-21T03:28:14.051Z,9.40
2022-08-21T03:30:42.880Z,10.73
2022-08-21T03:33:12.154Z,10.88
2022-08-21T03:35:39.481Z,10.95
2022-08-21T03:38:06.311Z,10.82
2022-08-21T03:40:33.359Z,10.10
2022-08-21T03:43:00.465Z,10.32
2022-08-21T03:45:27.618Z,10.25
2022-08-21T03:47:57.419Z,11.02
2022-08-21T03:50:26.414Z,10.45
2022-08-21T03:52:53.291Z,10.10
2022-08-21T03:55:20.324Z,10.10
2022-08-21T03:57:47.329Z,10.18
2022-08-21T04:00:15.513Z,10.68
2022-08-21T04:02:44.666Z,10.85
2022-08-21T04:05:13.558Z,10.95
2022-08-21T04:07:40.583Z,10.65
2022-08-21T04:10:08.650Z,11.57
2022-08-21T04:12:35.589Z,10.13
2022-08-21T04:15:03.053Z,10.88
2022-08-21T04:17:30.058Z,10.02
2022-08-21T04:19:57.517Z,10.57
2022-08-21T04:22:24.630Z,10.57
2022-08-21T04:24:51.541Z,10.15
2022-08-21T04:27:18.734Z,10.20
2022-08-21T04:29:45.622Z,10.40
2022-08-21T04:32:12.523Z,11.18
2022-08-21T04:34:39.488Z,10.15
2022-08-21T04:37:06.533Z,10.25
2022-08-21T04:39:33.416Z,10.70
2022-08-21T04:42:00.450Z,11.18
2022-08-21T04:44:27.303Z,10.52
2022-08-21T04:46:54.169Z,10.98
2022-08-21T04:49:21.055Z,10.82
2022-08-21T04:51:47.962Z,10.25
2022-08-21T04:54:19.119Z,10.30
2022-08-21T04:56:51.143Z,10.55
2022-08-21T04:59:25.469Z,10.35
2022-08-21T05:01:52.919Z,10.77
2022-08-21T05:04:23.307Z,9.98
2022-08-21T05:06:50.565Z,10.35
2022-08-21T05:09:18.834Z,10.60
2022-08-21T05:11:45.955Z,9.38
2022-08-21T05:14:13.782Z,11.68
2022-08-21T05:16:41.653Z,10.60
2022-08-21T05:19:09.398Z,9.63
2022-08-21T05:21:37.425Z,9.50
2022-08-21T05:24:04.576Z,10.60
2022-08-21T05:26:31.736Z,10.95
2022-08-21T05:28:59.341Z,10.80
2022-08-21T05:31:26.406Z,10.38
2022-08-21T05:33:53.272Z,10.23
2022-08-21T05:36:23.393Z,10.43
2022-08-21T05:38:50.303Z,10.00
2022-08-21T05:41:17.207Z,10.00
2022-08-21T05:43:44.390Z,9.77
2022-08-21T05:46:11.378Z,8.98
2022-08-21T05:48:38.281Z,8.13
2022-08-21T05:51:08.374Z,8.50
2022-08-21T05:53:36.361Z,8.55
2022-08-21T05:56:04.965Z,8.75
2022-08-21T05:58:33.934Z,9.50
2022-08-21T06:01:02.384Z,9.82
2022-08-21T06:03:37.250Z,9.05
2022-08-21T06:06:04.277Z,9.68
2022-08-21T06:08:31.393Z,10.38
2022-08-21T06:10:59.992Z,10.65
2022-08-21T06:13:27.272Z,10.00
2022-08-21T06:16:09.816Z,10.27
2022-08-21T06:18:37.953Z,10.65
2022-08-21T06:21:05.795Z,10.10
2022-08-21T06:23:33.698Z,10.52
2022-08-21T06:26:01.597Z,10.55
2022-08-21T06:28:28.895Z,10.45
2022-08-21T06:30:55.830Z,10.23
2022-08-21T06:33:22.707Z,11.00
2022-08-21T06:35:49.603Z,10.35
2022-08-21T06:38:16.899Z,9.90
2022-08-21T06:40:47.608Z,10.27
2022-08-21T06:43:17.312Z,10.15
2022-08-21T06:45:45.242Z,10.45
2022-08-21T06:48:16.908Z,10.13
2022-08-21T06:50:46.411Z,10.10
2022-08-21T06:53:15.661Z,9.55
2022-08-21T06:55:43.414Z,9.82
2022-08-21T06:58:11.100Z,11.02
2022-08-21T07:00:42.945Z,9.88
2022-08-21T07:03:21.850Z,9.77
2022-08-21T07:05:48.772Z,9.05
2022-08-21T07:08:15.913Z,8.75
2022-08-21T07:10:42.862Z,9.32
2022-08-21T07:13:10.134Z,9.50
2022-08-21T07:15:37.130Z,9.93
2022-08-21T07:18:04.429Z,9.57
2022-08-21T07:20:32.711Z,9.45
2022-08-21T07:23:02.744Z,8.10
2022-08-21T07:25:30.044Z,8.02
2022-08-21T07:27:57.299Z,8.30
2022-08-21T07:30:25.063Z,8.95
2022-08-21T07:32:52.378Z,8.60
2022-08-21T07:35:23.161Z,8.68
2022-08-21T07:37:50.950Z,7.68
2022-08-21T07:40:19.107Z,8.45
2022-08-21T07:42:48.326Z,7.90
2022-08-21T07:45:16.790Z,7.43
2022-08-21T07:47:43.913Z,7.43
2022-08-21T07:50:13.027Z,7.97
2022-08-21T07:52:41.281Z,7.88
2022-08-21T07:55:10.902Z,7.40
2022-08-21T07:57:38.147Z,7.50
2022-08-21T08:00:07.759Z,7.63
2022-08-21T08:02:34.687Z,6.60
2022-08-21T08:05:03.377Z,5.78
2022-08-21T08:07:30.957Z,6.45
2022-08-21T08:09:57.908Z,5.65
2022-08-21T08:12:30.122Z,5.82
2022-08-21T08:15:01.205Z,6.97
2022-08-21T08:17:28.287Z,4.85
2022-08-21T08:19:56.496Z,4.30
2022-08-21T08:22:25.013Z,4.15
2022-08-21T08:24:54.701Z,4.07
2022-08-21T08:27:22.418Z,4.18
2022-08-21T08:29:49.805Z,4.32
2022-08-21T08:32:16.706Z,3.63
2022-08-21T08:34:44.326Z,3.78
2022-08-21T08:37:12.044Z,3.63
2022-08-21T08:39:39.615Z,3.50
2022-08-21T08:42:33.803Z,3.33
2022-08-21T08:45:24.874Z,3.58
2022-08-21T08:47:59.151Z,3.38
2022-08-21T08:50:45.539Z,3.40
2022-08-21T08:53:19.691Z,3.20
2022-08-21T08:55:47.323Z,2.47
2022-08-21T08:58:40.845Z,2.50
2022-08-21T09:01:16.560Z,3.05
2022-08-21T09:03:43.724Z,2.75
2022-08-21T09:06:36.797Z,2.45
2022-08-21T09:09:50.162Z,2.55
2022-08-21T09:12:27.370Z,2.65
2022-08-21T09:15:02.759Z,2.17
2022-08-21T09:18:07.839Z,2.63
2022-08-21T09:20:34.928Z,2.33
2022-08-21T09:23:22.875Z,2.78
2022-08-21T09:26:17.808Z,2.75
2022-08-21T09:28:45.960Z,2.38
2022-08-21T09:31:28.814Z,2.28
2022-08-21T09:34:00.549Z,2.25
2022-08-21T09:36:52.078Z,2.30
2022-08-21T09:39:25.193Z,2.25
2022-08-21T09:42:01.297Z,2.22
2022-08-21T09:44:31.466Z,2.10
2022-08-21T09:46:58.359Z,2.78
2022-08-21T09:49:38.154Z,2.47
2022-08-21T09:52:15.592Z,3.05
2022-08-21T09:54:42.743Z,2.35
2022-08-21T09:57:28.442Z,2.83
2022-08-21T09:59:56.094Z,2.72
2022-08-21T10:02:27.247Z,2.85
2022-08-21T10:05:04.464Z,2.67
2022-08-21T10:07:33.101Z,2.35
2022-08-21T10:10:09.078Z,2.75
2022-08-21T10:13:00.288Z,2.63
2022-08-21T10:15:46.575Z,2.70
2022-08-21T10:18:25.123Z,2.50
2022-08-21T10:21:03.424Z,2.60
2022-08-21T10:23:42.582Z,2.33
2022-08-21T10:26:44.953Z,2.38
2022-08-21T10:29:37.163Z,2.75
2022-08-21T10:32:04.070Z,1.95
2022-08-21T10:34:46.724Z,2.00
2022-08-21T10:37:46.986Z,2.47
2022-08-21T10:40:23.820Z,2.28
2022-08-21T10:43:03.931Z,2.42
2022-08-21T10:46:03.725Z,2.13
2022-08-21T10:49:10.289Z,1.77
2022-08-21T10:52:16.151Z,1.38
2022-08-21T10:54:46.545Z,1.73
2022-08-21T10:57:32.101Z,2.28
2022-08-21T11:00:09.587Z,2.10
2022-08-21T11:02:49.431Z,1.58
2022-08-21T11:05:25.980Z,2.10
2022-08-21T11:08:07.697Z,2.08
2022-08-21T11:10:57.577Z,1.73
2022-08-21T11:13:55.367Z,2.13
2022-08-21T11:16:43.092Z,2.63
2022-08-21T11:19:28.921Z,2.42
2022-08-21T11:22:01.705Z,2.35
2022-08-21T11:24:28.790Z,2.30
2022-08-21T11:27:33.150Z,2.00
2022-08-21T11:30:01.332Z,2.30
2022-08-21T11:32:55.986Z,2.90
2022-08-21T11:35:50.574Z,3.00
2022-08-21T11:38:34.254Z,2.47
2022-08-21T11:41:22.177Z,2.58
2022-08-21T11:44:17.550Z,2.65
2022-08-21T11:47:12.195Z,2.42
2022-08-21T11:50:01.310Z,2.30
2022-08-21T11:52:47.263Z,2.40
2022-08-21T11:55:23.494Z,2.83
2022-08-21T11:58:02.155Z,2.35
2022-08-21T12:00:59.450Z,2.13
2022-08-21T12:03:35.772Z,2.47
2022-08-21T12:06:08.191Z,1.60
2022-08-21T12:08:36.884Z,1.70
2022-08-21T12:11:23.345Z,2.40
2022-08-21T12:14:01.908Z,1.75
2022-08-21T12:16:37.569Z,2.10
2022-08-21T12:19:12.612Z,2.10
2022-08-21T12:21:58.916Z,1.80
2022-08-21T12:24:28.786Z,1.90
2022-08-21T12:27:13.950Z,1.63
2022-08-21T12:29:48.203Z,2.08
2022-08-21T12:32:15.063Z,2.08
2022-08-21T12:34:50.004Z,1.25
2022-08-21T12:37:23.697Z,1.83
2022-08-21T12:39:53.105Z,1.98
2022-08-21T12:42:43.475Z,1.63
2022-08-21T12:45:41.591Z,1.88
2022-08-21T12:48:10.354Z,1.77
2022-08-21T12:50:38.750Z,1.40
2022-08-21T12:53:29.786Z,1.63
2022-08-21T12:56:02.574Z,1.45
2022-08-21T13:01:18.620Z,1.60
2022-08-21T13:03:45.636Z,1.40
2022-08-21T13:06:17.805Z,1.33
2022-08-21T13:08:47.353Z,1.75
2022-08-21T13:11:17.418Z,1.00
2022-08-21T13:14:04.868Z,1.40
2022-08-21T13:16:32.562Z,1.75
2022-08-21T13:19:06.425Z,1.58
2022-08-21T13:21:42.615Z,1.42
2022-08-21T13:24:42.305Z,1.73
2022-08-21T13:27:21.376Z,1.80
2022-08-21T13:29:53.610Z,1.38
2022-08-21T13:32:25.058Z,1.50
2022-08-21T13:34:54.196Z,1.85
2022-08-21T13:37:23.011Z,1.80
2022-08-21T13:39:53.087Z,1.70
2022-08-21T13:42:20.315Z,1.48
2022-08-21T13:44:49.075Z,2.10
2022-08-21T13:47:18.161Z,1.83
2022-08-21T13:49:47.617Z,1.77
2022-08-21T13:52:26.886Z,1.75
2022-08-21T13:55:13.366Z,1.88
2022-08-21T13:57:40.332Z,2.25
2022-08-21T14:00:26.520Z,1.83
2022-08-21T14:02:55.268Z,2.25
2022-08-21T14:05:26.751Z,1.95
2022-08-21T14:08:03.930Z,1.98
2022-08-21T14:10:31.440Z,1.83
2022-08-21T14:13:04.720Z,1.83
2022-08-21T14:15:34.128Z,1.75
2022-08-21T14:18:17.696Z,2.03
2022-08-21T14:20:44.955Z,2.00
2022-08-21T14:23:12.894Z,1.60
2022-08-21T14:25:44.165Z,1.38
2022-08-21T14:28:28.189Z,1.50
2022-08-21T14:30:56.570Z,1.92
2022-08-21T14:33:29.264Z,1.50
2022-08-21T14:35:57.011Z,1.42
2022-08-21T14:38:26.065Z,1.52
2022-08-21T14:41:05.127Z,1.42
2022-08-21T14:43:32.245Z,1.60
2022-08-21T14:45:59.070Z,1.85
2022-08-21T14:48:25.934Z,1.50
2022-08-21T14:50:57.135Z,1.50
2022-08-21T14:53:26.737Z,1.70
2022-08-21T14:56:08.776Z,1.92
2022-08-21T14:58:43.651Z,1.58
2022-08-21T15:01:12.172Z,1.35
2022-08-21T15:03:39.862Z,1.27
2022-08-21T15:06:07.904Z,1.67
2022-08-21T15:08:35.307Z,1.30
2022-08-21T15:11:12.731Z,1.58
2022-08-21T15:13:41.510Z,1.40
2022-08-21T15:16:10.238Z,1.25
2022-08-21T15:18:37.195Z,1.30
2022-08-21T15:21:04.179Z,1.50
2022-08-21T15:23:31.142Z,1.52
2022-08-21T15:26:01.115Z,1.40
2022-08-21T15:28:31.769Z,1.63
2022-08-21T15:31:01.365Z,1.27
2022-08-21T15:33:28.441Z,1.83
2022-08-21T15:35:55.586Z,1.75
2022-08-21T15:38:22.599Z,1.08
2022-08-21T15:40:52.458Z,1.63
2022-08-21T15:43:31.261Z,1.88
2022-08-21T15:46:01.174Z,1.25
2022-08-21T15:48:28.723Z,1.20
2022-08-21T15:50:55.527Z,1.38
2022-08-21T15:53:22.456Z,1.88
2022-08-21T15:55:49.319Z,1.48
2022-08-21T15:58:17.410Z,1.50
2022-08-21T16:00:45.624Z,1.35
2022-08-21T16:03:16.876Z,1.17
2022-08-21T16:05:45.800Z,1.52
2022-08-21T16:08:13.200Z,1.25
2022-08-21T16:10:41.313Z,1.35
2022-08-21T16:13:20.380Z,1.40
2022-08-21T16:15:47.293Z,1.27
2022-08-21T16:18:14.500Z,1.27
2022-08-21T16:20:41.553Z,1.23
2022-08-21T16:23:08.454Z,1.20
2022-08-21T16:25:40.031Z,1.67
2022-08-21T16:28:09.100Z,1.37
2022-08-21T16:30:39.200Z,0.77
2022-08-21T16:33:06.980Z,1.15
2022-08-21T16:35:33.893Z,0.98
2022-08-21T16:38:01.100Z,1.13
2022-08-21T16:40:28.591Z,1.15
2022-08-21T16:42:56.323Z,0.90
2022-08-21T16:45:23.418Z,1.10
2022-08-21T16:47:51.545Z,0.90
2022-08-21T16:50:22.612Z,1.10
2022-08-21T16:52:50.784Z,1.10
2022-08-21T16:55:18.178Z,1.30
2022-08-21T16:57:45.145Z,1.20
2022-08-21T17:00:13.612Z,1.38
2022-08-21T17:02:45.409Z,1.27
2022-08-21T17:05:14.022Z,1.17
2022-08-21T17:07:42.531Z,1.38
2022-08-21T17:10:10.867Z,1.65
2022-08-21T17:12:38.078Z,1.33
2022-08-21T17:15:16.303Z,1.73
2022-08-21T17:17:48.412Z,1.50
2022-08-21T17:20:15.726Z,1.27
2022-08-21T17:22:42.666Z,1.55
2022-08-21T17:25:09.802Z,1.70
2022-08-21T17:27:36.859Z,0.90
2022-08-21T17:30:06.946Z,1.30
2022-08-21T17:32:33.942Z,1.23
2022-08-21T17:35:00.767Z,1.10
2022-08-21T17:37:29.472Z,1.23
2022-08-21T17:39:57.216Z,1.20
2022-08-21T17:42:25.293Z,1.40
2022-08-21T17:44:52.784Z,1.60
2022-08-21T17:47:19.695Z,1.83
2022-08-21T17:49:46.519Z,1.20
2022-08-21T17:52:13.391Z,1.38
2022-08-21T17:54:41.227Z,1.30
2022-08-21T17:57:08.789Z,1.80
2022-08-21T17:59:35.703Z,1.25
2022-08-21T18:02:03.816Z,1.13
2022-08-21T18:04:32.989Z,1.33
2022-08-21T18:07:00.040Z,1.20
2022-08-21T18:09:28.178Z,1.13
2022-08-21T18:11:57.112Z,1.27
2022-08-21T18:14:28.323Z,1.33
2022-08-21T18:16:56.344Z,1.30
2022-08-21T18:19:26.126Z,1.52
2022-08-21T18:21:56.271Z,1.25
2022-08-21T18:24:24.042Z,1.27
2022-08-21T18:26:51.172Z,1.30
2022-08-21T18:29:20.043Z,1.40
2022-08-21T18:31:47.154Z,1.10
2022-08-21T18:34:27.120Z,1.35
2022-08-21T18:36:54.503Z,1.00
2022-08-21T18:39:38.226Z,1.15
2022-08-21T18:42:10.149Z,1.20
2022-08-21T18:44:37.770Z,1.95
2022-08-21T18:47:12.247Z,1.63
2022-08-21T18:49:39.465Z,2.10
2022-08-21T18:52:08.802Z,2.00
2022-08-21T18:57:29.199Z,1.60
2022-08-21T18:59:57.096Z,1.60
2022-08-21T19:02:25.809Z,1.85
2022-08-21T19:04:52.686Z,1.80
2022-08-21T19:07:20.469Z,1.50
2022-08-21T19:10:07.533Z,1.30
2022-08-21T19:12:35.107Z,1.20
2022-08-21T19:15:02.203Z,1.55
2022-08-21T19:17:29.800Z,1.20
2022-08-21T19:19:59.957Z,1.30
2022-08-21T19:22:27.003Z,1.35
2022-08-21T19:24:54.134Z,1.35
2022-08-21T19:27:21.008Z,1.40
2022-08-21T19:29:50.547Z,1.38
2022-08-21T19:32:20.110Z,1.35
2022-08-21T19:34:49.906Z,1.50
2022-08-21T19:37:20.640Z,1.52
2022-08-21T19:39:50.138Z,1.60
2022-08-21T19:42:21.012Z,1.60
2022-08-21T19:44:50.957Z,1.02
2022-08-21T19:47:21.329Z,1.25
2022-08-21T19:49:58.583Z,1.40
2022-08-21T19:52:25.796Z,1.65
2022-08-21T19:54:52.737Z,1.45
2022-08-21T19:57:19.672Z,1.35
2022-08-21T19:59:46.614Z,1.20
2022-08-21T20:02:15.086Z,1.25
2022-08-21T20:04:54.010Z,1.38
2022-08-21T20:07:29.206Z,1.75
2022-08-21T20:09:59.283Z,1.38
2022-08-21T20:12:26.792Z,1.52
2022-08-21T20:14:54.046Z,1.30
2022-08-21T20:17:21.625Z,1.60
2022-08-21T20:22:36.035Z,1.50
2022-08-21T20:25:03.201Z,1.75
2022-08-21T20:27:30.083Z,1.48
2022-08-21T20:29:57.169Z,1.50
2022-08-21T20:32:24.097Z,1.77
2022-08-21T20:34:51.963Z,1.88
2022-08-21T20:37:38.386Z,1.48
2022-08-21T20:40:11.761Z,1.23
2022-08-21T20:42:47.228Z,1.33
2022-08-21T20:45:29.735Z,1.58
2022-08-21T20:48:06.908Z,1.50
2022-08-21T20:50:37.532Z,1.75
2022-08-21T20:53:14.108Z,1.80
2022-08-21T20:55:47.473Z,1.40
2022-08-21T20:58:29.838Z,1.77
2022-08-21T21:01:00.305Z,1.42
2022-08-21T21:03:42.230Z,1.63
2022-08-21T21:06:15.272Z,1.50
2022-08-21T21:11:19.219Z,1.77
2022-08-21T21:13:50.891Z,1.80
2022-08-21T21:16:20.925Z,1.48
2022-08-21T21:18:55.644Z,1.60
2022-08-21T21:21:51.608Z,1.40
2022-08-21T21:24:31.903Z,1.52
2022-08-21T21:27:11.783Z,1.95
2022-08-21T21:29:52.618Z,1.45
2022-08-21T21:32:20.451Z,1.58
2022-08-21T21:34:51.167Z,1.23
2022-08-21T21:37:25.489Z,1.20
2022-08-21T21:39:57.756Z,1.52
2022-08-21T21:42:54.751Z,1.50
2022-08-21T21:45:51.965Z,1.50
2022-08-21T21:48:59.538Z,1.45
2022-08-21T21:51:26.554Z,1.88
2022-08-21T21:54:04.955Z,2.15
2022-08-21T21:57:22.333Z,1.27
2022-08-21T21:59:56.347Z,1.40
2022-08-21T22:02:32.096Z,1.63
2022-08-21T22:05:32.000Z,1.50
2022-08-21T22:08:07.983Z,1.60
2022-08-21T22:10:51.980Z,1.60
2022-08-21T22:13:26.924Z,1.80
2022-08-21T22:15:54.718Z,1.73
2022-08-21T22:18:31.899Z,1.67
2022-08-21T22:21:09.116Z,1.70
2022-08-21T22:23:46.908Z,1.65
2022-08-21T22:26:18.283Z,1.42
2022-08-21T22:28:47.992Z,2.03
2022-08-21T22:31:19.678Z,1.40
2022-08-21T22:34:01.298Z,1.60
2022-08-21T22:36:35.340Z,1.83
2022-08-21T22:39:05.786Z,1.55
2022-08-21T22:41:39.720Z,2.08
2022-08-21T22:44:08.190Z,1.70
2022-08-21T22:46:50.408Z,1.65
2022-08-21T22:52:35.529Z,1.42
2022-08-21T22:55:17.810Z,2.10
2022-08-21T22:58:04.125Z,2.03
2022-08-21T23:01:26.084Z,1.80
2022-08-21T23:03:58.749Z,1.70
2022-08-21T23:06:42.920Z,1.88
2022-08-21T23:09:31.068Z,1.70
2022-08-21T23:12:01.500Z,1.92
2022-08-21T23:14:48.014Z,1.80
2022-08-21T23:17:39.948Z,1.95
2022-08-21T23:20:27.307Z,1.80
2022-08-21T23:23:05.620Z,1.77
2022-08-21T23:26:12.334Z,1.55
2022-08-21T23:29:24.843Z,1.90
2022-08-21T23:35:51.122Z,2.00
2022-08-21T23:38:42.888Z,1.77
2022-08-21T23:41:34.340Z,2.63
2022-08-21T23:44:32.582Z,2.03
2022-08-21T23:47:06.015Z,1.63
2022-08-21T23:49:45.065Z,2.13
2022-08-21T23:52:26.489Z,1.92
2022-08-21T23:55:18.321Z,1.63
2022-08-21T23:58:15.669Z,1.70
